Terminal Aerodrome Forecast
Issued by NWS Sterling, VA

Current Version | Previous Version | Graphics & Text | Print | Product List | Glossary On
Versions: 1 2 3 4 5 6 7 8 9 10 11 12 13 14 15 16 17 18 19 20 21 22 23 24 25 26 27 28 29 30 31 32 33
000
FTUS41 KLWX 162100 AAB
TAFIAD
TAF AMD
KIAD 162125Z 1621/1724 11004KT 3SM BR OVC009
     FM162300 21006KT 5SM BR OVC012
     FM170200 24004KT P6SM BKN015
     FM170400 25005KT P6SM SCT050
     FM171400 29013G22KT P6SM SCT250
     FM172300 29009KT P6SM FEW250=

USA.gov is the U.S. government's official web portal to all federal, state and local government web resources and services.